Latest Weather Observations for Gunnedah Airport

IDN60801

Issued at 4:32 pm EDT Sunday 22 January 2017 (issued every 30 minutes, with the page automatically refreshed every 10 minutes)

About weather observations | Map of weather stations | Latest weather observations for NSW | Other Formats
Station Details ID: 055202 Name: GUNNEDAH AIRPORT AWS Lat: -30.95 Lon: 150.25 Height: 262.57 m
Data from the previous 72 hours. | See also: Recent months at Gunnedah Airport
Date/Time
EDT
Temp
°C
App
Temp
°C
Dew
Point
°C
Rel
Hum
%
Delta-T
°C
Wind Press
QNH
hPa
Press
MSL
hPa
Rain since
9am
mm
Dir  Spd
km/h
Gust
km/h
Spd
kts
Gust
kts
22/04:30pm 33.7 33.2 13.7 30 12.3 E 9 15 5 8 1011.8 1010.2 0.0
22/04:00pm 34.2 33.8 14.1 29 12.5 S 9 20 5 11 1012.0 1010.4 0.0
22/03:30pm 34.1 32.9 14.1 30 12.4 SSE 13 24 7 13 1012.3 1010.7 0.0
22/03:00pm 34.0 32.8 14.0 30 12.4 E 13 20 7 11 1012.8 1011.2 0.0
22/02:30pm 33.9 34.0 15.4 33 11.7 S 9 20 5 11 1013.1 1011.6 0.0
22/02:00pm 33.2 33.2 15.2 33 11.3 S 9 19 5 10 1013.4 1011.9 0.0
22/01:30pm 31.6 30.6 14.7 36 10.5 S 13 20 7 11 1013.9 1012.4 0.0
22/01:00pm 31.6 31.7 15.5 37 10.1 N 9 20 5 11 1014.4 1012.8 0.0
22/12:30pm 30.6 30.3 15.5 40 9.4 ENE 11 15 6 8 1014.8 1013.2 0.0
22/12:00pm 30.1 29.1 14.6 39 9.5 SE 13 22 7 12 1015.2 1013.6 0.0
22/11:30am 29.0 28.1 14.8 42 8.7 ESE 13 20 7 11 1015.4 1013.8 0.0
22/11:00am 28.4 27.2 15.0 44 8.2 E 15 22 8 12 1015.7 1014.1 0.0
22/10:30am 27.1 25.1 13.8 44 8.0 ESE 17 26 9 14 1015.9 1014.3 0.0
22/10:00am 26.4 24.2 14.5 48 7.2 SE 19 28 10 15 1016.0 1014.4 0.0
22/09:30am 25.4 23.7 14.8 52 6.4 ESE 17 24 9 13 1016.1 1014.5 0.0
22/09:00am 24.0 21.9 13.5 52 6.2 SE 17 24 9 13 1016.1 1014.5 0.0
22/08:30am 22.5 19.7 13.3 56 5.4 SE 20 26 11 14 1016.0 1014.4 0.0
22/08:00am 20.9 17.7 13.1 61 4.5 SE 22 28 12 15 1015.6 1014.0 0.0
22/07:30am 19.8 16.9 12.8 64 4.0 SE 20 28 11 15 1015.2 1013.6 0.0
22/07:00am 18.7 16.0 12.9 69 3.3 SE 19 24 10 13 1014.9 1013.3 0.0
22/06:30am 17.8 15.5 13.1 74 2.7 SE 17 22 9 12 1014.6 1013.0 0.0
22/06:00am 17.5 14.8 13.0 75 2.6 SE 19 24 10 13 1013.9 1012.4 0.0
22/05:30am 17.7 15.5 13.2 75 2.6 SE 17 20 9 11 1013.8 1012.3 0.0
22/05:00am 17.9 15.7 13.2 74 2.7 SE 17 22 9 12 1013.5 1012.0 0.0
22/04:30am 18.2 16.4 13.3 73 2.8 SE 15 20 8 11 1013.2 1011.7 0.0
22/04:00am 18.4 15.7 13.5 73 2.8 SE 20 24 11 13 1013.0 1011.4 0.0
22/03:30am 18.7 16.2 13.6 72 2.9 SE 19 24 10 13 1013.1 1011.6 0.0
22/03:00am 19.2 16.7 13.6 70 3.2 SE 19 24 10 13 1013.2 1011.7 0.0
22/02:30am 19.8 17.2 13.7 68 3.5 SE 20 26 11 14 1013.3 1011.8 0.0
22/02:00am 20.3 17.8 14.2 68 3.6 SSE 20 28 11 15 1013.2 1011.7 0.0
22/01:30am 20.5 18.4 14.6 69 3.5 SSE 19 22 10 12 1013.2 1011.7 0.0
22/01:00am 20.9 18.3 14.8 68 3.6 SE 22 28 12 15 1013.1 1011.6 0.0
22/12:30am 21.4 19.2 14.8 66 3.9 SE 20 28 11 15 1013.1 1011.6 0.0
22/12:00am 21.8 19.5 14.7 64 4.2 SE 20 26 11 14 1012.9 1011.3 0.0
 
Date/Time
EDT
Temp
°C
App
Temp
°C
Dew
Point
°C
Rel
Hum
%
Delta-T
°C
Wind Press
QNH
hPa
Press
MSL
hPa
Rain since
9am
mm
Dir  Spd
km/h
Gust
km/h
Spd
kts
Gust
kts
21/11:30pm 22.6 20.2 14.4 60 4.9 SE 20 28 11 15 1012.8 1011.2 0.0
21/11:00pm 23.3 20.5 14.3 57 5.4 SSE 22 30 12 16 1012.6 1011.0 0.0
21/10:30pm 23.7 20.0 13.8 53 5.9 SSE 26 35 14 19 1012.2 1010.6 0.0
21/10:00pm 24.5 20.6 13.4 50 6.5 SSE 26 37 14 20 1011.8 1010.2 0.0
21/09:30pm 25.0 20.7 13.2 48 6.9 SSE 28 41 15 22 1011.3 1009.7 0.0
21/09:00pm 25.9 21.6 13.1 45 7.6 SSE 28 43 15 23 1010.9 1009.3 0.0
21/08:30pm 26.9 22.9 12.9 42 8.3 SSE 26 35 14 19 1010.3 1008.7 0.0
21/08:00pm 27.7 23.7 12.9 40 8.8 SSE 26 32 14 17 1009.6 1008.1 0.0
21/07:30pm 29.3 25.3 11.8 34 10.3 SE 24 35 13 19 1009.1 1007.5 0.0
21/07:00pm 31.1 27.6 11.0 29 11.8 SSE 20 28 11 15 1008.7 1007.1 0.0
21/06:30pm 31.7 27.5 9.8 26 12.6 SE 22 30 12 16 1008.4 1006.8 0.0
21/06:00pm 32.2 28.3 10.8 27 12.5 SSE 22 30 12 16 1008.1 1006.5 0.0
21/05:30pm 32.4 28.2 11.0 27 12.6 SSE 24 35 13 19 1008.0 1006.4 0.0
21/05:00pm 33.0 30.0 12.6 29 12.3 SE 20 30 11 16 1007.8 1006.2 0.0
21/04:30pm 33.1 29.5 13.2 30 12.1 SE 24 37 13 20 1008.0 1006.4 0.0
21/04:00pm 32.3 29.3 12.0 29 12.1 ESE 19 30 10 16 1008.1 1006.5 0.0
21/03:30pm 32.6 30.1 14.2 32 11.3 SE 20 30 11 16 1008.2 1006.6 0.0
21/03:00pm 32.6 31.0 13.8 32 11.5 SSE 15 20 8 11 1008.3 1006.7 0.0
21/02:30pm 32.2 30.9 14.8 35 10.8 E 15 24 8 13 1008.4 1006.8 0.0
21/02:00pm 32.2 31.8 15.2 35 10.6 ESE 11 22 6 12 1008.5 1006.9 0.0
21/01:30pm 31.5 30.5 15.5 38 10.0 SSE 15 24 8 13 1008.6 1007.0 0.0
21/01:00pm 29.9 29.7 14.8 39 9.3 SE 9 19 5 10 1008.7 1007.1 0.0
21/12:30pm 28.9 27.9 14.7 42 8.7 SE 13 22 7 12 1009.0 1007.4 0.0
21/12:00pm 28.9 28.8 16.1 46 8.0 E 11 22 6 12 1009.1 1007.5 0.0
21/11:30am 27.6 27.6 16.2 49 7.1 ESE 11 20 6 11 1009.1 1007.5 0.0
21/11:00am 27.4 26.6 16.1 50 7.0 ESE 15 22 8 12 1009.2 1007.6 0.0
21/10:30am 27.3 27.4 17.5 55 6.2 SE 13 20 7 11 1009.1 1007.5 0.0
21/10:00am 25.6 25.0 16.7 58 5.6 SE 15 22 8 12 1008.9 1007.3 0.0
21/09:30am 25.3 24.9 17.2 61 5.1 SE 15 20 8 11 1008.9 1007.3 0.0
21/09:00am 24.4 24.2 16.6 61 4.8 SE 13 19 7 10 1008.7 1007.1 17.2
21/08:30am 23.4 25.1 16.2 64 4.4 SSE 2 9 1 5 1008.5 1006.9 17.2
21/08:00am 23.2 25.6 17.0 68 3.9 CALM 0 0 0 0 1008.3 1006.7 17.2
21/07:30am 21.1 23.0 17.7 81 2.1 NE 4 6 2 3 1007.9 1006.3 17.2
21/07:00am 19.9 21.3 17.7 87 1.4 NE 7 11 4 6 1007.7 1006.1 17.2
21/06:30am 18.6 20.3 16.2 86 1.4 WSW 2 6 1 3 1007.2 1005.6 17.2
21/06:00am 18.9 19.2 16.1 84 1.7 WSW 9 11 5 6 1006.6 1005.0 17.2
21/05:30am 19.3 20.0 16.2 82 1.9 WSW 7 7 4 4 1006.4 1004.8 17.2
21/05:00am 20.3 21.2 16.5 79 2.3 SW 7 9 4 5 1005.9 1004.3 17.2
21/04:30am 21.2 21.6 17.2 78 2.5 SW 11 15 6 8 1005.6 1004.0 17.2
21/04:00am 21.5 21.5 17.3 77 2.6 SSW 13 17 7 9 1005.3 1003.7 17.2
21/03:30am 22.7 23.7 17.8 74 3.1 SW 9 15 5 8 1005.3 1003.7 17.2
21/03:00am 22.4 24.2 18.8 80 2.3 SSW 7 13 4 7 1005.0 1003.4 17.0
21/02:30am 22.7 23.1 19.1 80 2.3 WSW 15 20 8 11 1004.7 1003.1 17.0
21/02:00am 23.5 23.7 19.4 78 2.7 SW 17 20 9 11 1004.9 1003.3 17.0
21/01:30am 24.4 24.7 20.7 80 2.4 SW 20 28 11 15 1004.8 1003.2 17.0
21/01:00am 24.6 25.5 21.5 83 2.1 WSW 19 28 10 15 1004.6 1003.0 17.0
21/12:30am 24.3 27.0 22.2 88 1.4 NW 11 13 6 7 1004.0 1002.4 17.0
21/12:00am 24.7 26.3 22.2 86 1.7 WNW 17 24 9 13 1003.9 1002.3 17.0
 
Date/Time
EDT
Temp
°C
App
Temp
°C
Dew
Point
°C
Rel
Hum
%
Delta-T
°C
Wind Press
QNH
hPa
Press
MSL
hPa
Rain since
9am
mm
Dir  Spd
km/h
Gust
km/h
Spd
kts
Gust
kts
20/11:30pm 25.9 27.3 21.8 78 2.8 WNW 17 24 9 13 1003.6 1002.0 17.0
20/11:00pm 25.2 27.8 21.9 82 2.2 WNW 11 15 6 8 1003.4 1001.8 17.0
20/10:30pm 24.5 27.8 21.8 85 1.8 NW 7 9 4 5 1002.8 1001.1 17.0
20/10:00pm 24.3 27.0 21.4 84 1.9 NW 9 15 5 8 1002.9 1001.3 17.0
20/09:30pm 24.6 26.8 21.9 85 1.8 N 13 20 7 11 1002.1 1000.5 17.0
20/09:00pm 24.9 26.6 22.4 86 1.7 NW 17 30 9 16 1001.8 1000.2 17.0
20/08:30pm 25.2 24.6 21.9 82 2.2 NW 28 41 15 22 1001.3 999.7 17.0
20/08:23pm 26.0 28.3 22.1 79 2.6 SSW 13 39 7 21 1001.2 999.6 17.0
20/08:00pm 26.0 31.8 23.9 88 1.5 CALM 0 9 0 5 1001.0 999.4 17.0
20/07:30pm 26.1 30.6 24.0 88 1.5 SSW 7 13 4 7 1000.6 999.0 17.0
20/07:00pm 25.5 28.0 23.2 87 1.6 S 15 20 8 11 1000.5 998.9 16.8
20/06:30pm 27.8 29.7 22.7 74 3.5 NNW 17 26 9 14 999.9 998.3 11.0
20/06:00pm 27.5 29.1 22.9 76 3.2 N 19 26 10 14 1000.0 998.4 11.0
20/05:30pm 27.1 29.1 22.9 78 2.9 NNW 17 24 9 13 1000.3 998.7 11.0
20/05:00pm 26.7 28.3 22.8 79 2.7 NNW 19 30 10 16 1000.5 998.9 11.0
20/04:30pm 26.0 27.5 23.1 84 2.0 NNW 20 26 11 14 1001.0 999.4 11.0
20/04:00pm 24.7 26.0 22.4 87 1.6 N 19 28 10 15 1001.1 999.5 11.0
20/03:30pm 23.6 24.7 22.0 91 1.1 N 19 26 10 14 1001.5 999.9 11.0
20/03:00pm 23.5 24.9 21.9 91 1.1 NW 17 22 9 12 1002.1 1000.5 11.0
20/02:30pm 22.5 23.5 21.1 92 0.9 WNW 17 26 9 14 1003.2 1001.6 10.4
20/02:18pm 21.9 18.8 20.4 91 1.0 W 37 59 20 32 1003.3 1001.7 9.4
20/02:14pm 21.9 16.6 20.2 90 1.1 W 48 74 26 40 1003.5 1001.9 7.4
20/02:05pm 22.9 17.4 15.7 64 4.4 NW 39 95 21 51 1003.5 1001.9 0.8
20/02:04pm 28.1 24.5 18.5 56 6.2 NW 35 95 19 51 1003.1 1001.5 0.0
20/02:03pm 31.3 28.7 19.9 50 7.6 NNW 33 54 18 29 1001.9 1000.3 0.0
20/02:00pm 31.9 28.7 19.5 47 8.3 NNW 35 50 19 27 1001.2 999.6 0.0
20/01:30pm 32.4 28.5 19.6 46 8.5 NNW 39 59 21 32 1000.8 999.2 0.0
20/01:21pm 33.4 29.3 19.1 42 9.5 NNW 39 59 21 32 1000.9 999.3 0.0
20/01:00pm 34.0 30.7 20.0 43 9.4 NNW 37 52 20 28 1001.4 999.8 0.0
20/12:43pm 33.3 30.0 20.1 45 8.9 NNW 37 56 20 30 1001.7 1000.1 0.0
20/12:30pm 32.7 31.0 19.9 46 8.6 NNW 28 43 15 23 1002.3 1000.6 0.0
20/12:23pm 32.6 30.3 20.5 49 8.1 NNW 33 52 18 28 1002.5 1000.8 0.0
20/12:00pm 32.2 29.7 20.8 51 7.7 NNW 35 50 19 27 1003.0 1001.4 0.0
20/11:30am 30.8 28.0 19.5 51 7.5 NW 33 54 18 29 1003.4 1001.8 0.0
20/11:25am 30.7 28.1 19.4 51 7.5 NW 32 50 17 27 1003.5 1001.9 0.0
20/11:00am 30.4 27.6 19.1 50 7.4 NNW 32 43 17 23 1003.6 1002.0 0.0
20/10:30am 28.9 26.2 19.2 55 6.4 NNW 32 46 17 25 1004.1 1002.5 0.0
20/10:25am 30.1 27.8 18.5 49 7.5 NNW 28 46 15 25 1004.0 1002.4 0.0
20/10:00am 30.0 29.8 19.4 53 7.0 NNW 19 26 10 14 1004.4 1002.8 0.0
20/09:30am 29.2 29.2 18.9 53 6.7 NNW 17 24 9 13 1005.0 1003.4 0.0
20/09:00am 28.6 28.7 19.2 56 6.2 NNW 17 22 9 12 1005.4 1003.8 0.0
20/08:30am 28.3 29.6 19.2 57 5.9 N 11 17 6 9 1005.8 1004.2 0.0
20/08:00am 27.0 29.2 19.6 64 4.9 NNE 7 15 4 8 1005.7 1004.1 0.0
20/07:30am 26.2 28.1 19.8 68 4.2 NNE 9 13 5 7 1005.6 1004.0 0.0
20/07:00am 25.0 26.2 19.8 73 3.4 NNE 13 17 7 9 1005.4 1003.8 0.0
20/06:30am 23.9 25.7 19.6 77 2.8 NNE 9 13 5 7 1005.0 1003.4 0.0
20/06:00am 23.1 26.1 18.4 75 3.0 CALM 0 0 0 0 1004.9 1003.3 0.0
20/05:30am 24.3 27.5 18.9 72 3.5 CALM 0 0 0 0 1004.9 1003.3 0.0
20/05:00am 24.3 27.6 19.1 73 3.4 CALM 0 6 0 3 1005.3 1003.7 0.0
20/04:30am 24.1 27.2 18.7 72 3.5 CALM 0 0 0 0 1004.9 1003.3 0.0
20/04:00am 24.3 26.0 18.5 70 3.7 NE 7 9 4 5 1005.2 1003.6 0.0
20/03:30am 24.9 26.6 18.1 66 4.3 ENE 6 9 3 5 1005.6 1004.0 0.0
20/03:00am 26.1 27.0 18.5 63 4.9 NE 11 17 6 9 1006.1 1004.5 0.0
20/02:30am 26.4 26.2 18.5 62 5.1 NE 17 20 9 11 1006.3 1004.7 0.0
20/02:00am 26.5 25.9 18.4 61 5.2 NE 19 26 10 14 1006.4 1004.8 0.0
20/01:30am 27.1 25.5 18.4 59 5.6 NE 24 32 13 17 1006.6 1005.0 0.0
20/01:00am 27.5 26.9 18.5 58 5.8 NE 19 26 10 14 1006.8 1005.2 0.0
20/12:30am 26.4 25.5 17.7 58 5.5 ESE 19 22 10 12 1007.0 1005.4 0.0
20/12:00am 25.9 25.7 17.5 59 5.3 SE 15 20 8 11 1007.1 1005.5 0.0
 
Date/Time
EDT
Temp
°C
App
Temp
°C
Dew
Point
°C
Rel
Hum
%
Delta-T
°C
Wind Press
QNH
hPa
Press
MSL
hPa
Rain since
9am
mm
Dir  Spd
km/h
Gust
km/h
Spd
kts
Gust
kts
19/11:30pm 26.0 24.7 16.8 57 5.8 SE 19 24 10 13 1007.3 1005.7 0.0
19/11:00pm 26.2 24.3 16.7 56 6.0 SE 22 28 12 15 1007.2 1005.6 0.0
19/10:30pm 26.3 24.6 16.3 54 6.2 SE 20 26 11 14 1007.0 1005.4 0.0
19/10:00pm 26.9 24.5 16.5 53 6.5 SSE 24 30 13 16 1006.7 1005.1 0.0
19/09:30pm 27.5 25.0 16.1 49 7.1 SE 24 35 13 19 1006.7 1005.1 0.0
19/09:00pm 28.6 26.1 16.2 47 7.8 SSE 24 33 13 18 1006.3 1004.7 0.0
19/08:30pm 29.5 27.1 16.3 45 8.3 SSE 24 37 13 20 1005.7 1004.1 0.0
19/08:00pm 30.8 28.4 16.4 42 9.1 SSE 24 35 13 19 1005.5 1003.9 0.0
19/07:30pm 32.1 29.2 16.0 38 10.2 SSE 26 39 14 21 1005.4 1003.8 0.0
19/07:00pm 33.8 31.0 15.3 33 11.7 SE 24 39 13 21 1005.2 1003.6 0.0
19/06:30pm 35.3 31.7 12.9 26 13.7 SE 24 32 13 17 1005.0 1003.4 0.0
19/06:00pm 36.3 32.9 13.7 25 14.1 SE 24 32 13 17 1004.9 1003.3 0.0
19/05:30pm 36.9 33.5 13.6 24 14.5 SSE 24 35 13 19 1005.2 1003.6 0.0
19/05:00pm 37.3 34.6 15.7 27 13.9 SE 24 33 13 18 1005.4 1003.8 0.0

Other Formats:

Comma delimited format used in spreadsheet applications
http://www.bom.gov.au/fwo/IDN60801/IDN60801.95740.axf

JavaScript Object Notation format (JSON) in row-major order
http://www.bom.gov.au/fwo/IDN60801/IDN60801.95740.json